Terminal Aerodrome Forecast
Issued by NWS

Home | Current Version | Previous Version | Text Only | Print | Product List | Glossary On
Versions: 1 2 3 4 5 6 7 8 9 10 11 12 13 14 15
000
FTUS43 KGRR 241126
TAFBTL
TAF
KBTL 241126Z 2412/2512 17007KT P6SM OVC070
     FM241600 19012KT 5SM -SHRA OVC025
      TEMPO 2416/2420 2SM +TSRA OVC015CB
     FM242000 19014KT 6SM -SHRA OVC025
     FM242300 21014KT P6SM VCTS BKN050CB
     FM250300 20009KT P6SM BKN110
     FM250900 22011KT P6SM BKN015=

USA.gov is the U.S. government's official web portal to all federal, state and local government web resources and services.